sensor_id;sensor_type;location;lat;lon;timestamp;temperature;humidity
7572;DHT22;3827;49.928;8.548;2024-01-30T00:01:55;0.60;99.90
7572;DHT22;3827;49.928;8.548;2024-01-30T00:04:21;0.50;99.90
7572;DHT22;3827;49.928;8.548;2024-01-30T00:06:48;0.50;99.90
7572;DHT22;3827;49.928;8.548;2024-01-30T00:09:15;0.40;99.90
7572;DHT22;3827;49.928;8.548;2024-01-30T00:11:42;0.40;99.90
7572;DHT22;3827;49.928;8.548;2024-01-30T00:14:08;0.40;99.90
7572;DHT22;3827;49.928;8.548;2024-01-30T00:16:35;0.40;99.90
7572;DHT22;3827;49.928;8.548;2024-01-30T00:19:03;0.30;99.90
7572;DHT22;3827;49.928;8.548;2024-01-30T00:21:30;0.30;99.90
7572;DHT22;3827;49.928;8.548;2024-01-30T00:23:57;0.40;99.90
7572;DHT22;3827;49.928;8.548;2024-01-30T00:26:23;0.30;99.90
7572;DHT22;3827;49.928;8.548;2024-01-30T00:28:50;0.30;99.90
7572;DHT22;3827;49.928;8.548;2024-01-30T00:31:17;0.30;99.90
7572;DHT22;3827;49.928;8.548;2024-01-30T00:33:43;0.20;99.90
7572;DHT22;3827;49.928;8.548;2024-01-30T00:36:11;0.20;99.90
7572;DHT22;3827;49.928;8.548;2024-01-30T00:38:38;0.30;99.90
7572;DHT22;3827;49.928;8.548;2024-01-30T00:41:07;0.30;99.90
7572;DHT22;3827;49.928;8.548;2024-01-30T00:43:34;0.20;99.90
7572;DHT22;3827;49.928;8.548;2024-01-30T00:46:01;0.20;99.90
7572;DHT22;3827;49.928;8.548;2024-01-30T00:48:28;0.20;99.90
7572;DHT22;3827;49.928;8.548;2024-01-30T00:50:55;0.20;99.90
7572;DHT22;3827;49.928;8.548;2024-01-30T00:53:23;0.10;99.90
7572;DHT22;3827;49.928;8.548;2024-01-30T00:55:50;0.10;99.90
7572;DHT22;3827;49.928;8.548;2024-01-30T00:58:17;0.10;99.90
7572;DHT22;3827;49.928;8.548;2024-01-30T01:00:44;0.00;99.90
7572;DHT22;3827;49.928;8.548;2024-01-30T01:03:11;0.00;99.90
7572;DHT22;3827;49.928;8.548;2024-01-30T01:05:39;1.20;99.90
7572;DHT22;3827;49.928;8.548;2024-01-30T01:08:06;0.00;99.90
7572;DHT22;3827;49.928;8.548;2024-01-30T01:10:34;0.00;99.90
7572;DHT22;3827;49.928;8.548;2024-01-30T01:13:01;0.00;99.90
7572;DHT22;3827;49.928;8.548;2024-01-30T01:15:28;0.10;99.90
7572;DHT22;3827;49.928;8.548;2024-01-30T01:17:54;0.00;99.90
7572;DHT22;3827;49.928;8.548;2024-01-30T01:20:21;-0.10;99.90
7572;DHT22;3827;49.928;8.548;2024-01-30T01:22:48;-0.10;99.90
7572;DHT22;3827;49.928;8.548;2024-01-30T01:25:15;0.00;99.90
7572;DHT22;3827;49.928;8.548;2024-01-30T01:27:43;-0.10;99.90
7572;DHT22;3827;49.928;8.548;2024-01-30T01:30:16;-0.10;99.90
7572;DHT22;3827;49.928;8.548;2024-01-30T01:32:47;0.00;99.90
7572;DHT22;3827;49.928;8.548;2024-01-30T01:35:20;-0.10;99.90
7572;DHT22;3827;49.928;8.548;2024-01-30T01:37:48;-0.10;99.90
7572;DHT22;3827;49.928;8.548;2024-01-30T01:40:20;-0.20;99.90
7572;DHT22;3827;49.928;8.548;2024-01-30T01:42:49;-0.20;99.90
7572;DHT22;3827;49.928;8.548;2024-01-30T01:45:16;-0.20;99.90
7572;DHT22;3827;49.928;8.548;2024-01-30T01:47:43;-0.30;99.90
7572;DHT22;3827;49.928;8.548;2024-01-30T01:50:11;-0.10;99.90
7572;DHT22;3827;49.928;8.548;2024-01-30T01:52:39;-0.30;99.90
7572;DHT22;3827;49.928;8.548;2024-01-30T01:55:07;-0.30;99.90
7572;DHT22;3827;49.928;8.548;2024-01-30T01:57:34;-0.20;99.90
7572;DHT22;3827;49.928;8.548;2024-01-30T02:00:02;-0.30;99.90
7572;DHT22;3827;49.928;8.548;2024-01-30T02:02:30;-0.30;99.90
7572;DHT22;3827;49.928;8.548;2024-01-30T02:05:01;-0.40;99.90
7572;DHT22;3827;49.928;8.548;2024-01-30T02:07:28;-0.30;99.90
7572;DHT22;3827;49.928;8.548;2024-01-30T02:09:55;-0.40;99.90
7572;DHT22;3827;49.928;8.548;2024-01-30T02:12:22;-0.30;99.90
7572;DHT22;3827;49.928;8.548;2024-01-30T02:14:50;-0.50;99.90
7572;DHT22;3827;49.928;8.548;2024-01-30T02:17:18;-0.60;99.90
7572;DHT22;3827;49.928;8.548;2024-01-30T02:19:45;-0.50;99.90
7572;DHT22;3827;49.928;8.548;2024-01-30T02:22:13;-0.50;99.90
7572;DHT22;3827;49.928;8.548;2024-01-30T02:24:41;-0.50;99.90
7572;DHT22;3827;49.928;8.548;2024-01-30T02:27:07;-0.30;99.90
7572;DHT22;3827;49.928;8.548;2024-01-30T02:29:34;-0.40;99.90
7572;DHT22;3827;49.928;8.548;2024-01-30T02:32:01;-0.50;99.90
7572;DHT22;3827;49.928;8.548;2024-01-30T02:34:27;-0.30;99.90
7572;DHT22;3827;49.928;8.548;2024-01-30T02:36:54;-0.40;99.90
7572;DHT22;3827;49.928;8.548;2024-01-30T02:39:22;-0.50;99.90
7572;DHT22;3827;49.928;8.548;2024-01-30T02:41:49;-0.60;99.90
7572;DHT22;3827;49.928;8.548;2024-01-30T02:44:16;-0.50;99.90
7572;DHT22;3827;49.928;8.548;2024-01-30T02:46:43;0.00;99.90
7572;DHT22;3827;49.928;8.548;2024-01-30T02:49:09;-0.40;99.90
7572;DHT22;3827;49.928;8.548;2024-01-30T02:51:36;-0.50;99.90
7572;DHT22;3827;49.928;8.548;2024-01-30T02:54:03;-0.60;99.90
7572;DHT22;3827;49.928;8.548;2024-01-30T02:56:31;-0.60;99.90
7572;DHT22;3827;49.928;8.548;2024-01-30T02:58:58;-0.50;99.90
7572;DHT22;3827;49.928;8.548;2024-01-30T03:01:24;-0.50;99.90
7572;DHT22;3827;49.928;8.548;2024-01-30T03:03:51;-0.50;99.90
7572;DHT22;3827;49.928;8.548;2024-01-30T03:06:18;-0.60;99.90
7572;DHT22;3827;49.928;8.548;2024-01-30T03:08:45;-0.40;99.90
7572;DHT22;3827;49.928;8.548;2024-01-30T03:11:12;-0.60;99.90
7572;DHT22;3827;49.928;8.548;2024-01-30T03:13:40;-0.60;99.90
7572;DHT22;3827;49.928;8.548;2024-01-30T03:16:08;-0.60;99.90
7572;DHT22;3827;49.928;8.548;2024-01-30T03:18:35;-0.60;99.90
7572;DHT22;3827;49.928;8.548;2024-01-30T03:21:02;-0.60;99.90
7572;DHT22;3827;49.928;8.548;2024-01-30T03:23:28;0.30;99.90
7572;DHT22;3827;49.928;8.548;2024-01-30T03:25:57;-0.60;99.90
7572;DHT22;3827;49.928;8.548;2024-01-30T03:28:24;-0.60;99.90
7572;DHT22;3827;49.928;8.548;2024-01-30T03:30:52;-0.70;99.90
7572;DHT22;3827;49.928;8.548;2024-01-30T03:33:19;-0.60;99.90
7572;DHT22;3827;49.928;8.548;2024-01-30T03:35:45;-0.60;99.90
7572;DHT22;3827;49.928;8.548;2024-01-30T03:38:12;-0.60;99.90
7572;DHT22;3827;49.928;8.548;2024-01-30T03:40:39;-0.50;99.90
7572;DHT22;3827;49.928;8.548;2024-01-30T03:43:06;-0.60;99.90
7572;DHT22;3827;49.928;8.548;2024-01-30T03:45:32;-0.70;99.90
7572;DHT22;3827;49.928;8.548;2024-01-30T03:48:00;-0.80;99.90
7572;DHT22;3827;49.928;8.548;2024-01-30T03:50:27;-1.00;99.90
7572;DHT22;3827;49.928;8.548;2024-01-30T03:52:54;-1.00;99.90
7572;DHT22;3827;49.928;8.548;2024-01-30T03:55:21;-1.00;99.90
7572;DHT22;3827;49.928;8.548;2024-01-30T03:57:48;-1.00;99.90
7572;DHT22;3827;49.928;8.548;2024-01-30T04:00:15;-0.90;99.90
7572;DHT22;3827;49.928;8.548;2024-01-30T04:02:42;-0.90;99.90
7572;DHT22;3827;49.928;8.548;2024-01-30T04:05:10;-1.00;99.90
7572;DHT22;3827;49.928;8.548;2024-01-30T04:07:37;-0.90;99.90
7572;DHT22;3827;49.928;8.548;2024-01-30T04:10:04;-0.80;99.90
7572;DHT22;3827;49.928;8.548;2024-01-30T04:12:31;-0.90;99.90
7572;DHT22;3827;49.928;8.548;2024-01-30T04:14:58;-0.90;99.90
7572;DHT22;3827;49.928;8.548;2024-01-30T04:17:25;-0.90;99.90
7572;DHT22;3827;49.928;8.548;2024-01-30T04:19:52;-0.80;99.90
7572;DHT22;3827;49.928;8.548;2024-01-30T04:22:20;-0.80;99.90
7572;DHT22;3827;49.928;8.548;2024-01-30T04:24:46;-0.70;99.90
7572;DHT22;3827;49.928;8.548;2024-01-30T04:27:13;0.70;99.90
7572;DHT22;3827;49.928;8.548;2024-01-30T04:29:40;-0.60;99.90
7572;DHT22;3827;49.928;8.548;2024-01-30T04:32:07;-0.70;99.90
7572;DHT22;3827;49.928;8.548;2024-01-30T04:34:35;-0.70;99.90
7572;DHT22;3827;49.928;8.548;2024-01-30T04:37:03;-0.70;99.90
7572;DHT22;3827;49.928;8.548;2024-01-30T04:39:32;-1.50;99.90
7572;DHT22;3827;49.928;8.548;2024-01-30T04:41:59;-0.70;99.90
7572;DHT22;3827;49.928;8.548;2024-01-30T04:44:26;-0.60;99.90
7572;DHT22;3827;49.928;8.548;2024-01-30T04:46:53;-0.60;99.90
7572;DHT22;3827;49.928;8.548;2024-01-30T04:49:19;0.80;99.90
7572;DHT22;3827;49.928;8.548;2024-01-30T04:51:46;-0.70;99.90
7572;DHT22;3827;49.928;8.548;2024-01-30T04:54:13;-0.60;99.90
7572;DHT22;3827;49.928;8.548;2024-01-30T04:56:41;-0.60;99.90
7572;DHT22;3827;49.928;8.548;2024-01-30T04:59:07;-0.60;99.90
7572;DHT22;3827;49.928;8.548;2024-01-30T05:01:35;-0.70;99.90
7572;DHT22;3827;49.928;8.548;2024-01-30T05:04:01;-0.70;99.90
7572;DHT22;3827;49.928;8.548;2024-01-30T05:06:29;-0.70;99.90
7572;DHT22;3827;49.928;8.548;2024-01-30T05:08:55;-0.60;99.90
7572;DHT22;3827;49.928;8.548;2024-01-30T05:11:22;-0.50;99.90
7572;DHT22;3827;49.928;8.548;2024-01-30T05:13:50;-0.70;99.90
7572;DHT22;3827;49.928;8.548;2024-01-30T05:16:17;-0.70;99.90
7572;DHT22;3827;49.928;8.548;2024-01-30T05:18:44;-0.70;99.90
7572;DHT22;3827;49.928;8.548;2024-01-30T05:21:11;-0.60;99.90
7572;DHT22;3827;49.928;8.548;2024-01-30T05:23:37;-0.60;99.90
7572;DHT22;3827;49.928;8.548;2024-01-30T05:26:04;-0.70;99.90
7572;DHT22;3827;49.928;8.548;2024-01-30T05:28:32;-0.50;99.90
7572;DHT22;3827;49.928;8.548;2024-01-30T05:31:00;-0.70;99.90
7572;DHT22;3827;49.928;8.548;2024-01-30T05:33:27;-0.60;99.90
7572;DHT22;3827;49.928;8.548;2024-01-30T05:35:54;-0.70;99.90
7572;DHT22;3827;49.928;8.548;2024-01-30T05:38:21;-0.70;99.90
7572;DHT22;3827;49.928;8.548;2024-01-30T05:40:48;-0.60;99.90
7572;DHT22;3827;49.928;8.548;2024-01-30T05:43:15;-0.70;99.90
7572;DHT22;3827;49.928;8.548;2024-01-30T05:45:41;-0.60;99.90
7572;DHT22;3827;49.928;8.548;2024-01-30T05:48:09;-0.60;99.90
7572;DHT22;3827;49.928;8.548;2024-01-30T05:50:36;-0.40;99.90
7572;DHT22;3827;49.928;8.548;2024-01-30T05:53:03;-0.60;99.90
7572;DHT22;3827;49.928;8.548;2024-01-30T05:55:30;-0.50;99.90
7572;DHT22;3827;49.928;8.548;2024-01-30T05:57:57;-0.50;99.90
7572;DHT22;3827;49.928;8.548;2024-01-30T06:00:23;-0.60;99.90
7572;DHT22;3827;49.928;8.548;2024-01-30T06:02:50;-0.50;99.90
7572;DHT22;3827;49.928;8.548;2024-01-30T06:05:18;-0.40;99.90
7572;DHT22;3827;49.928;8.548;2024-01-30T06:07:45;-0.60;99.90
7572;DHT22;3827;49.928;8.548;2024-01-30T06:10:12;-0.60;99.90
7572;DHT22;3827;49.928;8.548;2024-01-30T06:12:39;-0.60;99.90
7572;DHT22;3827;49.928;8.548;2024-01-30T06:15:07;-0.50;99.90
7572;DHT22;3827;49.928;8.548;2024-01-30T06:17:33;-0.60;99.90
7572;DHT22;3827;49.928;8.548;2024-01-30T06:20:00;-0.70;99.90
7572;DHT22;3827;49.928;8.548;2024-01-30T06:22:28;-0.70;99.90
7572;DHT22;3827;49.928;8.548;2024-01-30T06:24:55;-0.70;99.90
7572;DHT22;3827;49.928;8.548;2024-01-30T06:27:22;-0.80;99.90
7572;DHT22;3827;49.928;8.548;2024-01-30T06:29:48;-0.60;99.90
7572;DHT22;3827;49.928;8.548;2024-01-30T06:32:14;-0.70;99.90
7572;DHT22;3827;49.928;8.548;2024-01-30T06:34:41;-0.70;99.90
7572;DHT22;3827;49.928;8.548;2024-01-30T06:37:09;-0.80;99.90
7572;DHT22;3827;49.928;8.548;2024-01-30T06:39:37;-0.80;99.90
7572;DHT22;3827;49.928;8.548;2024-01-30T06:42:04;-0.90;99.90
7572;DHT22;3827;49.928;8.548;2024-01-30T06:44:31;-0.90;99.90
7572;DHT22;3827;49.928;8.548;2024-01-30T06:46:58;-1.00;99.90
7572;DHT22;3827;49.928;8.548;2024-01-30T06:49:25;-1.20;99.90
7572;DHT22;3827;49.928;8.548;2024-01-30T06:51:52;-1.00;99.90
7572;DHT22;3827;49.928;8.548;2024-01-30T06:54:18;-1.00;99.90
7572;DHT22;3827;49.928;8.548;2024-01-30T06:56:46;-1.10;99.90
7572;DHT22;3827;49.928;8.548;2024-01-30T06:59:13;-1.00;99.90
7572;DHT22;3827;49.928;8.548;2024-01-30T07:01:40;-1.00;99.90
7572;DHT22;3827;49.928;8.548;2024-01-30T07:04:06;-1.00;99.90
7572;DHT22;3827;49.928;8.548;2024-01-30T07:06:33;-1.00;99.90
7572;DHT22;3827;49.928;8.548;2024-01-30T07:09:00;-1.00;99.90
7572;DHT22;3827;49.928;8.548;2024-01-30T07:11:27;-1.00;99.90
7572;DHT22;3827;49.928;8.548;2024-01-30T07:13:55;-1.00;99.90
7572;DHT22;3827;49.928;8.548;2024-01-30T07:16:22;-0.90;99.90
7572;DHT22;3827;49.928;8.548;2024-01-30T07:18:49;-1.00;99.90
7572;DHT22;3827;49.928;8.548;2024-01-30T07:21:16;-1.00;99.90
7572;DHT22;3827;49.928;8.548;2024-01-30T07:23:43;-0.90;99.90
7572;DHT22;3827;49.928;8.548;2024-01-30T07:26:09;-0.80;99.90
7572;DHT22;3827;49.928;8.548;2024-01-30T07:28:36;-0.60;99.90
7572;DHT22;3827;49.928;8.548;2024-01-30T07:31:05;-0.70;99.90
7572;DHT22;3827;49.928;8.548;2024-01-30T07:33:32;-0.60;99.90
7572;DHT22;3827;49.928;8.548;2024-01-30T07:35:58;-0.70;99.90
7572;DHT22;3827;49.928;8.548;2024-01-30T07:38:25;-0.50;99.90
7572;DHT22;3827;49.928;8.548;2024-01-30T07:40:52;-0.60;99.90
7572;DHT22;3827;49.928;8.548;2024-01-30T07:43:19;-0.70;99.90
7572;DHT22;3827;49.928;8.548;2024-01-30T07:45:46;-0.80;99.90
7572;DHT22;3827;49.928;8.548;2024-01-30T07:48:14;-0.60;99.90
7572;DHT22;3827;49.928;8.548;2024-01-30T07:50:41;-0.50;99.90
7572;DHT22;3827;49.928;8.548;2024-01-30T07:53:08;-0.60;99.90
7572;DHT22;3827;49.928;8.548;2024-01-30T07:55:35;-0.40;99.90
7572;DHT22;3827;49.928;8.548;2024-01-30T07:58:01;0.10;99.90
7572;DHT22;3827;49.928;8.548;2024-01-30T08:00:30;-0.50;99.90
7572;DHT22;3827;49.928;8.548;2024-01-30T08:02:56;-0.50;99.90
7572;DHT22;3827;49.928;8.548;2024-01-30T08:05:25;-0.40;99.90
7572;DHT22;3827;49.928;8.548;2024-01-30T08:07:52;-0.40;99.90
7572;DHT22;3827;49.928;8.548;2024-01-30T08:10:19;-0.20;99.90
7572;DHT22;3827;49.928;8.548;2024-01-30T08:12:46;-0.10;99.90
7572;DHT22;3827;49.928;8.548;2024-01-30T08:15:13;0.00;99.90
7572;DHT22;3827;49.928;8.548;2024-01-30T08:17:40;0.00;99.90
7572;DHT22;3827;49.928;8.548;2024-01-30T08:20:08;0.10;99.90
7572;DHT22;3827;49.928;8.548;2024-01-30T08:22:38;0.10;99.90
7572;DHT22;3827;49.928;8.548;2024-01-30T08:25:06;0.20;99.90
7572;DHT22;3827;49.928;8.548;2024-01-30T08:27:33;0.30;99.90
7572;DHT22;3827;49.928;8.548;2024-01-30T08:30:01;0.40;99.90
7572;DHT22;3827;49.928;8.548;2024-01-30T08:32:27;0.50;99.90
7572;DHT22;3827;49.928;8.548;2024-01-30T08:34:54;0.70;99.90
7572;DHT22;3827;49.928;8.548;2024-01-30T08:37:21;0.80;99.90
7572;DHT22;3827;49.928;8.548;2024-01-30T08:39:49;1.00;99.90
7572;DHT22;3827;49.928;8.548;2024-01-30T08:42:16;1.10;99.90
7572;DHT22;3827;49.928;8.548;2024-01-30T08:44:44;1.30;99.90
7572;DHT22;3827;49.928;8.548;2024-01-30T08:47:10;1.30;99.90
7572;DHT22;3827;49.928;8.548;2024-01-30T08:49:37;1.50;99.90
7572;DHT22;3827;49.928;8.548;2024-01-30T08:52:04;1.60;99.90
7572;DHT22;3827;49.928;8.548;2024-01-30T08:54:31;1.70;99.90
7572;DHT22;3827;49.928;8.548;2024-01-30T08:57:02;1.80;99.90
7572;DHT22;3827;49.928;8.548;2024-01-30T08:59:29;1.80;99.90
7572;DHT22;3827;49.928;8.548;2024-01-30T09:01:56;1.70;99.90
7572;DHT22;3827;49.928;8.548;2024-01-30T09:04:24;1.70;99.90
7572;DHT22;3827;49.928;8.548;2024-01-30T09:06:51;1.60;99.90
7572;DHT22;3827;49.928;8.548;2024-01-30T09:09:18;1.60;99.90
7572;DHT22;3827;49.928;8.548;2024-01-30T09:11:44;1.50;99.90
7572;DHT22;3827;49.928;8.548;2024-01-30T09:14:13;1.50;99.90
7572;DHT22;3827;49.928;8.548;2024-01-30T09:16:39;1.60;99.90
7572;DHT22;3827;49.928;8.548;2024-01-30T09:19:06;1.90;99.90
7572;DHT22;3827;49.928;8.548;2024-01-30T09:21:33;2.10;99.90
7572;DHT22;3827;49.928;8.548;2024-01-30T09:24:02;2.20;99.90
7572;DHT22;3827;49.928;8.548;2024-01-30T09:26:29;2.30;99.90
7572;DHT22;3827;49.928;8.548;2024-01-30T09:28:56;2.40;99.90
7572;DHT22;3827;49.928;8.548;2024-01-30T09:31:24;2.50;99.90
7572;DHT22;3827;49.928;8.548;2024-01-30T09:33:51;2.60;99.90
7572;DHT22;3827;49.928;8.548;2024-01-30T09:36:19;2.80;99.90
7572;DHT22;3827;49.928;8.548;2024-01-30T09:38:46;2.80;99.90
7572;DHT22;3827;49.928;8.548;2024-01-30T09:41:14;2.90;99.90
7572;DHT22;3827;49.928;8.548;2024-01-30T09:43:42;3.10;99.90
7572;DHT22;3827;49.928;8.548;2024-01-30T09:46:15;3.10;99.90
7572;DHT22;3827;49.928;8.548;2024-01-30T09:48:46;3.00;99.90
7572;DHT22;3827;49.928;8.548;2024-01-30T09:51:14;2.90;99.90
7572;DHT22;3827;49.928;8.548;2024-01-30T09:53:42;3.00;99.90
7572;DHT22;3827;49.928;8.548;2024-01-30T09:56:09;3.00;99.90
7572;DHT22;3827;49.928;8.548;2024-01-30T09:58:36;3.00;99.90
7572;DHT22;3827;49.928;8.548;2024-01-30T10:01:05;3.10;99.90
7572;DHT22;3827;49.928;8.548;2024-01-30T10:03:32;3.00;99.90
7572;DHT22;3827;49.928;8.548;2024-01-30T10:06:01;3.20;99.90
7572;DHT22;3827;49.928;8.548;2024-01-30T10:08:28;3.40;99.90
7572;DHT22;3827;49.928;8.548;2024-01-30T10:10:55;3.60;99.90
7572;DHT22;3827;49.928;8.548;2024-01-30T10:13:22;3.60;99.90
7572;DHT22;3827;49.928;8.548;2024-01-30T10:15:48;3.60;99.90
7572;DHT22;3827;49.928;8.548;2024-01-30T10:18:16;3.70;99.90
7572;DHT22;3827;49.928;8.548;2024-01-30T10:20:42;3.80;99.90
7572;DHT22;3827;49.928;8.548;2024-01-30T10:23:11;3.80;99.90
7572;DHT22;3827;49.928;8.548;2024-01-30T10:25:38;4.00;99.90
7572;DHT22;3827;49.928;8.548;2024-01-30T10:28:05;4.00;99.90
7572;DHT22;3827;49.928;8.548;2024-01-30T10:30:32;4.10;99.90
7572;DHT22;3827;49.928;8.548;2024-01-30T10:32:59;4.10;99.90
7572;DHT22;3827;49.928;8.548;2024-01-30T10:35:26;4.10;99.90
7572;DHT22;3827;49.928;8.548;2024-01-30T10:37:53;4.40;99.90
7572;DHT22;3827;49.928;8.548;2024-01-30T10:40:26;4.70;99.90
7572;DHT22;3827;49.928;8.548;2024-01-30T10:42:55;4.70;99.90
7572;DHT22;3827;49.928;8.548;2024-01-30T10:45:22;4.70;99.90
7572;DHT22;3827;49.928;8.548;2024-01-30T10:47:50;4.90;99.90
7572;DHT22;3827;49.928;8.548;2024-01-30T10:50:19;5.20;99.90
7572;DHT22;3827;49.928;8.548;2024-01-30T10:52:46;5.30;99.90
7572;DHT22;3827;49.928;8.548;2024-01-30T10:55:14;5.30;99.90
7572;DHT22;3827;49.928;8.548;2024-01-30T10:57:43;5.40;99.90
7572;DHT22;3827;49.928;8.548;2024-01-30T11:00:12;5.50;99.90
7572;DHT22;3827;49.928;8.548;2024-01-30T11:02:43;5.60;99.90
7572;DHT22;3827;49.928;8.548;2024-01-30T11:05:10;5.40;99.90
7572;DHT22;3827;49.928;8.548;2024-01-30T11:07:39;5.50;99.90
7572;DHT22;3827;49.928;8.548;2024-01-30T11:10:06;6.00;99.90
7572;DHT22;3827;49.928;8.548;2024-01-30T11:12:38;6.30;99.90
7572;DHT22;3827;49.928;8.548;2024-01-30T11:15:08;6.60;99.90
7572;DHT22;3827;49.928;8.548;2024-01-30T11:17:42;6.40;99.90
7572;DHT22;3827;49.928;8.548;2024-01-30T11:20:10;5.80;99.90
7572;DHT22;3827;49.928;8.548;2024-01-30T11:22:41;5.80;99.90
7572;DHT22;3827;49.928;8.548;2024-01-30T11:25:11;6.00;99.90
7572;DHT22;3827;49.928;8.548;2024-01-30T11:27:38;6.40;99.90
7572;DHT22;3827;49.928;8.548;2024-01-30T11:30:08;6.40;99.90
7572;DHT22;3827;49.928;8.548;2024-01-30T11:32:35;6.60;99.90
7572;DHT22;3827;49.928;8.548;2024-01-30T11:35:03;6.70;99.90
7572;DHT22;3827;49.928;8.548;2024-01-30T11:37:31;6.80;99.90
7572;DHT22;3827;49.928;8.548;2024-01-30T11:39:58;6.90;99.90
7572;DHT22;3827;49.928;8.548;2024-01-30T11:42:26;6.80;99.90
7572;DHT22;3827;49.928;8.548;2024-01-30T11:44:53;6.70;99.90
7572;DHT22;3827;49.928;8.548;2024-01-30T11:47:22;6.80;99.90
7572;DHT22;3827;49.928;8.548;2024-01-30T11:49:49;6.80;99.90
7572;DHT22;3827;49.928;8.548;2024-01-30T11:52:16;6.90;99.90
7572;DHT22;3827;49.928;8.548;2024-01-30T11:54:43;7.10;99.90
7572;DHT22;3827;49.928;8.548;2024-01-30T11:57:10;7.20;99.90
7572;DHT22;3827;49.928;8.548;2024-01-30T11:59:37;7.20;99.90
7572;DHT22;3827;49.928;8.548;2024-01-30T12:02:04;7.40;99.90
7572;DHT22;3827;49.928;8.548;2024-01-30T12:04:32;7.30;99.90
7572;DHT22;3827;49.928;8.548;2024-01-30T12:06:59;7.30;99.90
7572;DHT22;3827;49.928;8.548;2024-01-30T12:09:26;7.30;99.90
7572;DHT22;3827;49.928;8.548;2024-01-30T12:11:53;7.50;99.90
7572;DHT22;3827;49.928;8.548;2024-01-30T12:14:22;7.80;99.90
7572;DHT22;3827;49.928;8.548;2024-01-30T12:16:50;7.80;99.90
7572;DHT22;3827;49.928;8.548;2024-01-30T12:19:23;8.00;99.90
7572;DHT22;3827;49.928;8.548;2024-01-30T12:21:58;7.90;99.90
7572;DHT22;3827;49.928;8.548;2024-01-30T12:24:25;7.80;99.90
7572;DHT22;3827;49.928;8.548;2024-01-30T12:26:52;8.50;99.90
7572;DHT22;3827;49.928;8.548;2024-01-30T12:29:23;7.60;99.90
7572;DHT22;3827;49.928;8.548;2024-01-30T12:31:53;7.50;99.90
7572;DHT22;3827;49.928;8.548;2024-01-30T12:34:20;7.50;99.90
7572;DHT22;3827;49.928;8.548;2024-01-30T12:36:47;7.60;99.90
7572;DHT22;3827;49.928;8.548;2024-01-30T12:39:16;7.90;99.90
7572;DHT22;3827;49.928;8.548;2024-01-30T12:41:44;8.10;99.90
7572;DHT22;3827;49.928;8.548;2024-01-30T12:44:11;8.70;99.90
7572;DHT22;3827;49.928;8.548;2024-01-30T12:46:40;8.60;99.90
7572;DHT22;3827;49.928;8.548;2024-01-30T12:49:07;8.80;99.90
7572;DHT22;3827;49.928;8.548;2024-01-30T12:51:34;8.90;99.90
7572;DHT22;3827;49.928;8.548;2024-01-30T12:54:05;9.00;99.90
7572;DHT22;3827;49.928;8.548;2024-01-30T12:56:33;8.90;99.90
7572;DHT22;3827;49.928;8.548;2024-01-30T12:59:00;9.00;99.90
7572;DHT22;3827;49.928;8.548;2024-01-30T13:01:27;8.90;99.90
7572;DHT22;3827;49.928;8.548;2024-01-30T13:03:54;9.10;99.90
7572;DHT22;3827;49.928;8.548;2024-01-30T13:06:23;9.20;99.90
7572;DHT22;3827;49.928;8.548;2024-01-30T13:08:49;9.30;99.90
7572;DHT22;3827;49.928;8.548;2024-01-30T13:11:16;9.30;99.90
7572;DHT22;3827;49.928;8.548;2024-01-30T13:13:44;9.70;99.90
7572;DHT22;3827;49.928;8.548;2024-01-30T13:16:11;9.50;99.90
7572;DHT22;3827;49.928;8.548;2024-01-30T13:18:38;10.40;99.90
7572;DHT22;3827;49.928;8.548;2024-01-30T13:21:05;9.80;99.90
7572;DHT22;3827;49.928;8.548;2024-01-30T13:23:32;9.90;99.90
7572;DHT22;3827;49.928;8.548;2024-01-30T13:25:59;10.00;99.90
7572;DHT22;3827;49.928;8.548;2024-01-30T13:28:25;9.90;99.90
7572;DHT22;3827;49.928;8.548;2024-01-30T13:30:54;9.90;99.90
7572;DHT22;3827;49.928;8.548;2024-01-30T13:33:21;10.10;99.90
7572;DHT22;3827;49.928;8.548;2024-01-30T13:35:47;9.80;99.90
7572;DHT22;3827;49.928;8.548;2024-01-30T13:38:14;9.70;99.90
7572;DHT22;3827;49.928;8.548;2024-01-30T13:40:41;10.60;99.90
7572;DHT22;3827;49.928;8.548;2024-01-30T13:43:08;9.70;99.90
7572;DHT22;3827;49.928;8.548;2024-01-30T13:45:35;9.80;99.90
7572;DHT22;3827;49.928;8.548;2024-01-30T13:48:04;9.80;99.90
7572;DHT22;3827;49.928;8.548;2024-01-30T13:50:31;9.90;99.90
7572;DHT22;3827;49.928;8.548;2024-01-30T13:52:58;10.00;99.90
7572;DHT22;3827;49.928;8.548;2024-01-30T13:55:25;10.00;99.90
7572;DHT22;3827;49.928;8.548;2024-01-30T13:57:52;10.00;99.90
7572;DHT22;3827;49.928;8.548;2024-01-30T14:00:19;10.20;99.90
7572;DHT22;3827;49.928;8.548;2024-01-30T14:02:47;9.90;99.90
7572;DHT22;3827;49.928;8.548;2024-01-30T14:05:15;9.80;99.90
7572;DHT22;3827;49.928;8.548;2024-01-30T14:07:43;9.80;99.90
7572;DHT22;3827;49.928;8.548;2024-01-30T14:10:10;9.70;99.90
7572;DHT22;3827;49.928;8.548;2024-01-30T14:12:37;9.70;99.90
7572;DHT22;3827;49.928;8.548;2024-01-30T14:15:04;9.70;99.90
7572;DHT22;3827;49.928;8.548;2024-01-30T14:17:30;9.60;99.90
7572;DHT22;3827;49.928;8.548;2024-01-30T14:19:57;9.60;99.90
7572;DHT22;3827;49.928;8.548;2024-01-30T14:22:25;10.20;99.90
7572;DHT22;3827;49.928;8.548;2024-01-30T14:24:52;9.50;99.90
7572;DHT22;3827;49.928;8.548;2024-01-30T14:27:18;9.50;99.90
7572;DHT22;3827;49.928;8.548;2024-01-30T14:29:45;9.40;99.90
7572;DHT22;3827;49.928;8.548;2024-01-30T14:32:12;9.40;99.90
7572;DHT22;3827;49.928;8.548;2024-01-30T14:34:39;9.40;99.90
7572;DHT22;3827;49.928;8.548;2024-01-30T14:37:06;9.30;99.90
7572;DHT22;3827;49.928;8.548;2024-01-30T14:39:34;10.20;99.90
7572;DHT22;3827;49.928;8.548;2024-01-30T14:42:03;9.30;99.90
7572;DHT22;3827;49.928;8.548;2024-01-30T14:44:29;9.30;99.90
7572;DHT22;3827;49.928;8.548;2024-01-30T14:46:57;9.20;99.90
7572;DHT22;3827;49.928;8.548;2024-01-30T14:49:23;9.20;99.90
7572;DHT22;3827;49.928;8.548;2024-01-30T14:51:50;9.20;99.90
7572;DHT22;3827;49.928;8.548;2024-01-30T14:54:17;9.20;99.90
7572;DHT22;3827;49.928;8.548;2024-01-30T14:56:46;9.10;99.90
7572;DHT22;3827;49.928;8.548;2024-01-30T14:59:12;9.00;99.90
7572;DHT22;3827;49.928;8.548;2024-01-30T15:01:39;8.90;99.90
7572;DHT22;3827;49.928;8.548;2024-01-30T15:04:05;8.90;99.90
7572;DHT22;3827;49.928;8.548;2024-01-30T15:06:33;8.80;99.90
7572;DHT22;3827;49.928;8.548;2024-01-30T15:09:00;8.80;99.90
7572;DHT22;3827;49.928;8.548;2024-01-30T15:11:26;8.80;99.90
7572;DHT22;3827;49.928;8.548;2024-01-30T15:13:55;8.70;99.90
7572;DHT22;3827;49.928;8.548;2024-01-30T15:16:21;8.70;99.90
7572;DHT22;3827;49.928;8.548;2024-01-30T15:18:49;8.60;99.90
7572;DHT22;3827;49.928;8.548;2024-01-30T15:21:16;9.40;99.90
7572;DHT22;3827;49.928;8.548;2024-01-30T15:23:45;8.70;99.90
7572;DHT22;3827;49.928;8.548;2024-01-30T15:26:12;9.30;99.90
7572;DHT22;3827;49.928;8.548;2024-01-30T15:28:39;8.50;99.90
7572;DHT22;3827;49.928;8.548;2024-01-30T15:31:07;8.50;99.90
7572;DHT22;3827;49.928;8.548;2024-01-30T15:33:34;8.50;99.90
7572;DHT22;3827;49.928;8.548;2024-01-30T15:36:01;8.40;99.90
7572;DHT22;3827;49.928;8.548;2024-01-30T15:38:28;8.50;99.90
7572;DHT22;3827;49.928;8.548;2024-01-30T15:40:55;8.30;99.90
7572;DHT22;3827;49.928;8.548;2024-01-30T15:43:22;8.80;99.90
7572;DHT22;3827;49.928;8.548;2024-01-30T15:45:49;8.30;99.90
7572;DHT22;3827;49.928;8.548;2024-01-30T15:48:18;8.30;99.90
7572;DHT22;3827;49.928;8.548;2024-01-30T15:50:45;8.20;99.90
7572;DHT22;3827;49.928;8.548;2024-01-30T15:53:11;8.10;99.90
7572;DHT22;3827;49.928;8.548;2024-01-30T15:55:38;8.10;99.90
7572;DHT22;3827;49.928;8.548;2024-01-30T15:58:05;8.20;99.90
7572;DHT22;3827;49.928;8.548;2024-01-30T16:00:32;8.10;99.90
7572;DHT22;3827;49.928;8.548;2024-01-30T16:02:59;8.20;99.90
7572;DHT22;3827;49.928;8.548;2024-01-30T16:05:27;8.10;99.90
7572;DHT22;3827;49.928;8.548;2024-01-30T16:07:54;11.20;99.90
7572;DHT22;3827;49.928;8.548;2024-01-30T16:10:21;7.90;99.90